sensor_id;sensor_type;location;lat;lon;timestamp;P1;durP1;ratioP1;P2;durP2;ratioP2
50012;SDS011;35901;48.694;9.476;2023-04-22T00:01:20;13.40;;;12.10;;
50012;SDS011;35901;48.694;9.476;2023-04-22T00:03:45;13.13;;;11.87;;
50012;SDS011;35901;48.694;9.476;2023-04-22T00:06:11;13.53;;;12.17;;
50012;SDS011;35901;48.694;9.476;2023-04-22T00:08:37;13.47;;;12.13;;
50012;SDS011;35901;48.694;9.476;2023-04-22T00:11:03;13.93;;;11.97;;
50012;SDS011;35901;48.694;9.476;2023-04-22T00:13:28;13.63;;;12.27;;
50012;SDS011;35901;48.694;9.476;2023-04-22T00:15:54;12.63;;;11.43;;
50012;SDS011;35901;48.694;9.476;2023-04-22T00:18:20;13.13;;;11.83;;
50012;SDS011;35901;48.694;9.476;2023-04-22T00:20:46;13.63;;;12.33;;
50012;SDS011;35901;48.694;9.476;2023-04-22T00:23:13;13.97;;;12.67;;
50012;SDS011;35901;48.694;9.476;2023-04-22T00:25:42;13.40;;;12.20;;
50012;SDS011;35901;48.694;9.476;2023-04-22T00:28:07;15.67;;;13.97;;
50012;SDS011;35901;48.694;9.476;2023-04-22T00:30:33;15.07;;;13.57;;
50012;SDS011;35901;48.694;9.476;2023-04-22T00:33:00;13.60;;;12.13;;
50012;SDS011;35901;48.694;9.476;2023-04-22T00:35:26;12.50;;;11.30;;
50012;SDS011;35901;48.694;9.476;2023-04-22T00:37:52;16.20;;;14.60;;
50012;SDS011;35901;48.694;9.476;2023-04-22T00:40:18;17.20;;;15.50;;
50012;SDS011;35901;48.694;9.476;2023-04-22T00:42:44;16.00;;;14.50;;
50012;SDS011;35901;48.694;9.476;2023-04-22T00:45:14;14.10;;;12.77;;
50012;SDS011;35901;48.694;9.476;2023-04-22T00:47:42;16.07;;;13.73;;
50012;SDS011;35901;48.694;9.476;2023-04-22T00:50:09;14.10;;;12.73;;
50012;SDS011;35901;48.694;9.476;2023-04-22T00:52:35;14.07;;;12.67;;
50012;SDS011;35901;48.694;9.476;2023-04-22T00:55:00;13.23;;;11.93;;
50012;SDS011;35901;48.694;9.476;2023-04-22T00:57:26;15.47;;;13.87;;
50012;SDS011;35901;48.694;9.476;2023-04-22T00:59:55;14.70;;;13.30;;
50012;SDS011;35901;48.694;9.476;2023-04-22T01:02:21;15.97;;;14.37;;
50012;SDS011;35901;48.694;9.476;2023-04-22T01:04:47;16.47;;;14.97;;
50012;SDS011;35901;48.694;9.476;2023-04-22T01:07:14;15.93;;;14.33;;
50012;SDS011;35901;48.694;9.476;2023-04-22T01:09:40;16.40;;;14.70;;
50012;SDS011;35901;48.694;9.476;2023-04-22T01:12:05;14.13;;;12.63;;
50012;SDS011;35901;48.694;9.476;2023-04-22T01:14:31;14.47;;;13.03;;
50012;SDS011;35901;48.694;9.476;2023-04-22T01:16:58;14.53;;;13.17;;
50012;SDS011;35901;48.694;9.476;2023-04-22T01:19:24;15.70;;;14.20;;
50012;SDS011;35901;48.694;9.476;2023-04-22T01:21:50;17.53;;;15.63;;
50012;SDS011;35901;48.694;9.476;2023-04-22T01:24:17;16.10;;;14.50;;
50012;SDS011;35901;48.694;9.476;2023-04-22T01:26:43;16.57;;;14.80;;
50012;SDS011;35901;48.694;9.476;2023-04-22T01:29:09;16.67;;;14.93;;
50012;SDS011;35901;48.694;9.476;2023-04-22T01:31:35;16.33;;;14.63;;
50012;SDS011;35901;48.694;9.476;2023-04-22T01:34:02;17.00;;;15.30;;
50012;SDS011;35901;48.694;9.476;2023-04-22T01:36:28;17.07;;;15.47;;
50012;SDS011;35901;48.694;9.476;2023-04-22T01:38:55;17.87;;;16.07;;
50012;SDS011;35901;48.694;9.476;2023-04-22T01:41:20;20.00;;;17.90;;
50012;SDS011;35901;48.694;9.476;2023-04-22T01:43:46;17.83;;;16.13;;
50012;SDS011;35901;48.694;9.476;2023-04-22T01:46:12;18.00;;;16.20;;
50012;SDS011;35901;48.694;9.476;2023-04-22T01:48:40;17.07;;;15.37;;
50012;SDS011;35901;48.694;9.476;2023-04-22T01:51:06;18.10;;;16.30;;
50012;SDS011;35901;48.694;9.476;2023-04-22T01:53:31;19.63;;;17.57;;
50012;SDS011;35901;48.694;9.476;2023-04-22T01:55:57;17.43;;;15.63;;
50012;SDS011;35901;48.694;9.476;2023-04-22T01:58:27;17.00;;;15.30;;
50012;SDS011;35901;48.694;9.476;2023-04-22T02:00:54;18.03;;;16.23;;
50012;SDS011;35901;48.694;9.476;2023-04-22T02:03:20;18.13;;;16.33;;
50012;SDS011;35901;48.694;9.476;2023-04-22T02:05:46;17.57;;;15.97;;
50012;SDS011;35901;48.694;9.476;2023-04-22T02:08:11;17.83;;;15.97;;
50012;SDS011;35901;48.694;9.476;2023-04-22T02:10:37;15.40;;;13.87;;
50012;SDS011;35901;48.694;9.476;2023-04-22T02:13:03;16.30;;;14.77;;
50012;SDS011;35901;48.694;9.476;2023-04-22T02:15:28;17.97;;;16.13;;
50012;SDS011;35901;48.694;9.476;2023-04-22T02:17:54;17.17;;;15.47;;
50012;SDS011;35901;48.694;9.476;2023-04-22T02:20:20;17.43;;;15.63;;
50012;SDS011;35901;48.694;9.476;2023-04-22T02:22:46;16.80;;;15.20;;
50012;SDS011;35901;48.694;9.476;2023-04-22T02:25:12;16.03;;;14.43;;
50012;SDS011;35901;48.694;9.476;2023-04-22T02:27:38;16.77;;;14.87;;
50012;SDS011;35901;48.694;9.476;2023-04-22T02:30:04;16.07;;;14.57;;
50012;SDS011;35901;48.694;9.476;2023-04-22T02:32:30;15.50;;;13.90;;
50012;SDS011;35901;48.694;9.476;2023-04-22T02:34:57;16.50;;;14.90;;
50012;SDS011;35901;48.694;9.476;2023-04-22T02:37:22;15.67;;;14.17;;
50012;SDS011;35901;48.694;9.476;2023-04-22T02:39:48;16.03;;;14.43;;
50012;SDS011;35901;48.694;9.476;2023-04-22T02:42:14;16.43;;;14.10;;
50012;SDS011;35901;48.694;9.476;2023-04-22T02:44:39;15.67;;;14.17;;
50012;SDS011;35901;48.694;9.476;2023-04-22T02:47:05;16.67;;;14.97;;
50012;SDS011;35901;48.694;9.476;2023-04-22T02:49:32;14.93;;;13.37;;
50012;SDS011;35901;48.694;9.476;2023-04-22T02:51:57;17.67;;;14.53;;
50012;SDS011;35901;48.694;9.476;2023-04-22T02:54:23;13.47;;;12.17;;
50012;SDS011;35901;48.694;9.476;2023-04-22T02:56:49;16.80;;;15.17;;
50012;SDS011;35901;48.694;9.476;2023-04-22T02:59:15;17.43;;;15.63;;
50012;SDS011;35901;48.694;9.476;2023-04-22T03:01:40;15.40;;;13.90;;
50012;SDS011;35901;48.694;9.476;2023-04-22T03:04:10;17.53;;;15.80;;
50012;SDS011;35901;48.694;9.476;2023-04-22T03:06:36;18.20;;;16.30;;
50012;SDS011;35901;48.694;9.476;2023-04-22T03:09:02;20.07;;;17.97;;
50012;SDS011;35901;48.694;9.476;2023-04-22T03:11:28;18.57;;;16.67;;
50012;SDS011;35901;48.694;9.476;2023-04-22T03:13:53;19.10;;;17.10;;
50012;SDS011;35901;48.694;9.476;2023-04-22T03:16:21;17.33;;;15.63;;
50012;SDS011;35901;48.694;9.476;2023-04-22T03:18:48;18.50;;;16.63;;
50012;SDS011;35901;48.694;9.476;2023-04-22T03:21:14;18.87;;;16.33;;
50012;SDS011;35901;48.694;9.476;2023-04-22T03:23:39;20.37;;;16.80;;
50012;SDS011;35901;48.694;9.476;2023-04-22T03:26:05;19.77;;;17.87;;
50012;SDS011;35901;48.694;9.476;2023-04-22T03:28:31;19.07;;;17.27;;
50012;SDS011;35901;48.694;9.476;2023-04-22T03:30:57;17.30;;;15.63;;
50012;SDS011;35901;48.694;9.476;2023-04-22T03:33:23;17.37;;;15.63;;
50012;SDS011;35901;48.694;9.476;2023-04-22T03:35:54;17.70;;;15.83;;
50012;SDS011;35901;48.694;9.476;2023-04-22T03:38:20;17.10;;;15.40;;
50012;SDS011;35901;48.694;9.476;2023-04-22T03:40:48;16.90;;;15.23;;
50012;SDS011;35901;48.694;9.476;2023-04-22T03:43:26;16.23;;;14.63;;
50012;SDS011;35901;48.694;9.476;2023-04-22T03:45:59;14.60;;;13.10;;
50012;SDS011;35901;48.694;9.476;2023-04-22T03:48:27;13.83;;;12.40;;
50012;SDS011;35901;48.694;9.476;2023-04-22T03:50:54;13.87;;;12.57;;
50012;SDS011;35901;48.694;9.476;2023-04-22T03:53:21;12.80;;;11.57;;
50012;SDS011;35901;48.694;9.476;2023-04-22T03:55:47;11.70;;;10.60;;
50012;SDS011;35901;48.694;9.476;2023-04-22T03:58:14;12.73;;;11.40;;
50012;SDS011;35901;48.694;9.476;2023-04-22T04:00:40;10.73;;;9.73;;
50012;SDS011;35901;48.694;9.476;2023-04-22T04:03:12;12.20;;;11.00;;
50012;SDS011;35901;48.694;9.476;2023-04-22T04:05:38;13.73;;;12.33;;
50012;SDS011;35901;48.694;9.476;2023-04-22T04:08:03;12.73;;;11.43;;
50012;SDS011;35901;48.694;9.476;2023-04-22T04:10:30;13.67;;;12.30;;
50012;SDS011;35901;48.694;9.476;2023-04-22T04:13:04;13.67;;;12.27;;
50012;SDS011;35901;48.694;9.476;2023-04-22T04:15:37;15.40;;;12.90;;
50012;SDS011;35901;48.694;9.476;2023-04-22T04:18:04;13.30;;;12.00;;
50012;SDS011;35901;48.694;9.476;2023-04-22T04:20:31;12.23;;;10.93;;
50012;SDS011;35901;48.694;9.476;2023-04-22T04:22:57;12.67;;;11.30;;
50012;SDS011;35901;48.694;9.476;2023-04-22T04:25:24;12.67;;;11.47;;
50012;SDS011;35901;48.694;9.476;2023-04-22T04:27:49;10.97;;;9.97;;
50012;SDS011;35901;48.694;9.476;2023-04-22T04:30:16;13.00;;;11.70;;
50012;SDS011;35901;48.694;9.476;2023-04-22T04:32:46;14.23;;;12.73;;
50012;SDS011;35901;48.694;9.476;2023-04-22T04:35:15;13.53;;;12.03;;
50012;SDS011;35901;48.694;9.476;2023-04-22T04:37:46;11.67;;;10.43;;
50012;SDS011;35901;48.694;9.476;2023-04-22T04:40:13;12.40;;;11.20;;
50012;SDS011;35901;48.694;9.476;2023-04-22T04:42:44;12.67;;;11.37;;
50012;SDS011;35901;48.694;9.476;2023-04-22T04:45:16;13.67;;;12.27;;
50012;SDS011;35901;48.694;9.476;2023-04-22T04:47:43;12.67;;;11.47;;
50012;SDS011;35901;48.694;9.476;2023-04-22T04:50:17;12.43;;;11.23;;
50012;SDS011;35901;48.694;9.476;2023-04-22T04:52:46;13.10;;;11.77;;
50012;SDS011;35901;48.694;9.476;2023-04-22T04:55:14;12.93;;;11.63;;
50012;SDS011;35901;48.694;9.476;2023-04-22T04:57:40;12.13;;;10.93;;
50012;SDS011;35901;48.694;9.476;2023-04-22T05:00:09;12.67;;;11.37;;
50012;SDS011;35901;48.694;9.476;2023-04-22T05:02:36;11.83;;;10.73;;
50012;SDS011;35901;48.694;9.476;2023-04-22T05:05:02;11.63;;;10.43;;
50012;SDS011;35901;48.694;9.476;2023-04-22T05:07:28;11.67;;;10.47;;
50012;SDS011;35901;48.694;9.476;2023-04-22T05:09:55;11.00;;;9.90;;
50012;SDS011;35901;48.694;9.476;2023-04-22T05:12:21;12.80;;;11.60;;
50012;SDS011;35901;48.694;9.476;2023-04-22T05:14:47;13.00;;;11.73;;
50012;SDS011;35901;48.694;9.476;2023-04-22T05:17:13;11.33;;;10.13;;
50012;SDS011;35901;48.694;9.476;2023-04-22T05:19:39;11.93;;;10.67;;
50012;SDS011;35901;48.694;9.476;2023-04-22T05:22:06;13.10;;;11.70;;
50012;SDS011;35901;48.694;9.476;2023-04-22T05:24:32;11.83;;;10.63;;
50012;SDS011;35901;48.694;9.476;2023-04-22T05:26:57;10.97;;;9.97;;
50012;SDS011;35901;48.694;9.476;2023-04-22T05:29:24;12.53;;;11.33;;
50012;SDS011;35901;48.694;9.476;2023-04-22T05:31:51;11.83;;;10.73;;
50012;SDS011;35901;48.694;9.476;2023-04-22T05:34:16;12.80;;;11.60;;
50012;SDS011;35901;48.694;9.476;2023-04-22T05:36:42;12.00;;;10.80;;
50012;SDS011;35901;48.694;9.476;2023-04-22T05:39:08;14.17;;;12.80;;
50012;SDS011;35901;48.694;9.476;2023-04-22T05:41:34;14.60;;;12.40;;
50012;SDS011;35901;48.694;9.476;2023-04-22T05:44:00;14.13;;;12.73;;
50012;SDS011;35901;48.694;9.476;2023-04-22T05:49:05;13.23;;;11.93;;
50012;SDS011;35901;48.694;9.476;2023-04-22T05:51:49;12.73;;;11.40;;
50012;SDS011;35901;48.694;9.476;2023-04-22T05:54:18;12.07;;;10.87;;
50012;SDS011;35901;48.694;9.476;2023-04-22T05:56:44;12.23;;;11.03;;
50012;SDS011;35901;48.694;9.476;2023-04-22T05:59:10;12.87;;;11.57;;
50012;SDS011;35901;48.694;9.476;2023-04-22T06:01:36;11.43;;;10.23;;
50012;SDS011;35901;48.694;9.476;2023-04-22T06:04:05;10.87;;;9.87;;
50012;SDS011;35901;48.694;9.476;2023-04-22T06:06:32;11.47;;;10.30;;
50012;SDS011;35901;48.694;9.476;2023-04-22T06:08:57;12.50;;;11.30;;
50012;SDS011;35901;48.694;9.476;2023-04-22T06:11:23;10.93;;;9.93;;
50012;SDS011;35901;48.694;9.476;2023-04-22T06:13:49;10.63;;;9.63;;
50012;SDS011;35901;48.694;9.476;2023-04-22T06:16:15;11.90;;;10.77;;
50012;SDS011;35901;48.694;9.476;2023-04-22T06:18:51;10.23;;;9.07;;
50012;SDS011;35901;48.694;9.476;2023-04-22T06:21:19;10.93;;;9.13;;
50012;SDS011;35901;48.694;9.476;2023-04-22T06:23:44;9.50;;;8.57;;
50012;SDS011;35901;48.694;9.476;2023-04-22T06:26:10;9.33;;;8.53;;
50012;SDS011;35901;48.694;9.476;2023-04-22T06:28:36;8.00;;;7.30;;
50012;SDS011;35901;48.694;9.476;2023-04-22T06:31:13;8.20;;;7.50;;
50012;SDS011;35901;48.694;9.476;2023-04-22T06:33:39;8.83;;;7.93;;
50012;SDS011;35901;48.694;9.476;2023-04-22T06:36:04;7.03;;;6.43;;
50012;SDS011;35901;48.694;9.476;2023-04-22T06:38:32;6.90;;;6.30;;
50012;SDS011;35901;48.694;9.476;2023-04-22T06:41:12;7.30;;;6.60;;
50012;SDS011;35901;48.694;9.476;2023-04-22T06:43:42;6.53;;;6.03;;
50012;SDS011;35901;48.694;9.476;2023-04-22T06:46:08;6.07;;;5.60;;
50012;SDS011;35901;48.694;9.476;2023-04-22T06:48:49;6.07;;;5.50;;
50012;SDS011;35901;48.694;9.476;2023-04-22T06:51:35;5.67;;;5.17;;
50012;SDS011;35901;48.694;9.476;2023-04-22T06:54:00;6.27;;;4.97;;
50012;SDS011;35901;48.694;9.476;2023-04-22T06:56:26;5.30;;;4.80;;
50012;SDS011;35901;48.694;9.476;2023-04-22T06:58:52;5.07;;;4.67;;
50012;SDS011;35901;48.694;9.476;2023-04-22T07:01:19;5.00;;;4.50;;
50012;SDS011;35901;48.694;9.476;2023-04-22T07:03:45;5.00;;;4.50;;
50012;SDS011;35901;48.694;9.476;2023-04-22T07:06:13;5.07;;;4.60;;
50012;SDS011;35901;48.694;9.476;2023-04-22T07:08:39;4.00;;;3.70;;
50012;SDS011;35901;48.694;9.476;2023-04-22T07:11:05;4.40;;;4.00;;
50012;SDS011;35901;48.694;9.476;2023-04-22T07:14:00;4.63;;;4.20;;
50012;SDS011;35901;48.694;9.476;2023-04-22T07:16:25;4.70;;;4.33;;
50012;SDS011;35901;48.694;9.476;2023-04-22T07:18:52;4.90;;;4.40;;
50012;SDS011;35901;48.694;9.476;2023-04-22T07:21:18;4.77;;;4.40;;
50012;SDS011;35901;48.694;9.476;2023-04-22T07:23:43;4.47;;;4.17;;
50012;SDS011;35901;48.694;9.476;2023-04-22T07:26:09;4.37;;;3.97;;
50012;SDS011;35901;48.694;9.476;2023-04-22T07:28:35;4.17;;;3.87;;
50012;SDS011;35901;48.694;9.476;2023-04-22T07:31:04;4.30;;;4.00;;
50012;SDS011;35901;48.694;9.476;2023-04-22T07:33:30;4.40;;;4.00;;
50012;SDS011;35901;48.694;9.476;2023-04-22T07:35:55;4.40;;;4.00;;
50012;SDS011;35901;48.694;9.476;2023-04-22T07:38:21;4.10;;;3.67;;
50012;SDS011;35901;48.694;9.476;2023-04-22T07:40:47;4.20;;;3.80;;
50012;SDS011;35901;48.694;9.476;2023-04-22T07:43:12;3.80;;;3.40;;
50012;SDS011;35901;48.694;9.476;2023-04-22T07:45:38;3.40;;;3.20;;
50012;SDS011;35901;48.694;9.476;2023-04-22T07:48:04;3.53;;;3.30;;
50012;SDS011;35901;48.694;9.476;2023-04-22T07:50:30;3.83;;;3.53;;
50012;SDS011;35901;48.694;9.476;2023-04-22T07:52:56;3.60;;;3.30;;
50012;SDS011;35901;48.694;9.476;2023-04-22T07:55:22;3.90;;;3.53;;
50012;SDS011;35901;48.694;9.476;2023-04-22T07:57:47;3.90;;;3.60;;
50012;SDS011;35901;48.694;9.476;2023-04-22T08:00:13;3.73;;;3.43;;
50012;SDS011;35901;48.694;9.476;2023-04-22T08:02:39;3.97;;;3.67;;
50012;SDS011;35901;48.694;9.476;2023-04-22T08:05:05;3.93;;;3.60;;
50012;SDS011;35901;48.694;9.476;2023-04-22T08:07:31;3.87;;;3.57;;
50012;SDS011;35901;48.694;9.476;2023-04-22T08:09:57;4.00;;;3.27;;
50012;SDS011;35901;48.694;9.476;2023-04-22T08:12:22;3.70;;;3.40;;
50012;SDS011;35901;48.694;9.476;2023-04-22T08:14:48;3.90;;;3.40;;
50012;SDS011;35901;48.694;9.476;2023-04-22T08:17:14;3.53;;;3.23;;
50012;SDS011;35901;48.694;9.476;2023-04-22T08:19:40;2.80;;;2.60;;
50012;SDS011;35901;48.694;9.476;2023-04-22T08:22:06;3.20;;;3.00;;
50012;SDS011;35901;48.694;9.476;2023-04-22T08:24:32;2.83;;;2.53;;
50012;SDS011;35901;48.694;9.476;2023-04-22T08:26:58;2.97;;;2.67;;
50012;SDS011;35901;48.694;9.476;2023-04-22T08:29:23;2.90;;;2.70;;
50012;SDS011;35901;48.694;9.476;2023-04-22T08:31:49;2.87;;;2.67;;
50012;SDS011;35901;48.694;9.476;2023-04-22T08:34:15;2.93;;;2.50;;
50012;SDS011;35901;48.694;9.476;2023-04-22T08:36:41;3.73;;;2.50;;
50012;SDS011;35901;48.694;9.476;2023-04-22T08:39:06;3.33;;;3.03;;
50012;SDS011;35901;48.694;9.476;2023-04-22T08:41:33;2.93;;;2.73;;
50012;SDS011;35901;48.694;9.476;2023-04-22T08:43:59;4.03;;;3.20;;
50012;SDS011;35901;48.694;9.476;2023-04-22T08:46:26;3.40;;;3.10;;
50012;SDS011;35901;48.694;9.476;2023-04-22T08:48:52;3.07;;;2.60;;
50012;SDS011;35901;48.694;9.476;2023-04-22T08:51:18;3.07;;;2.80;;
50012;SDS011;35901;48.694;9.476;2023-04-22T08:53:44;2.40;;;2.20;;
50012;SDS011;35901;48.694;9.476;2023-04-22T08:56:11;2.60;;;2.40;;
50012;SDS011;35901;48.694;9.476;2023-04-22T08:58:38;2.50;;;2.23;;
50012;SDS011;35901;48.694;9.476;2023-04-22T09:01:06;2.40;;;2.30;;
50012;SDS011;35901;48.694;9.476;2023-04-22T09:03:32;3.07;;;2.40;;
50012;SDS011;35901;48.694;9.476;2023-04-22T09:06:03;2.67;;;2.20;;
50012;SDS011;35901;48.694;9.476;2023-04-22T09:08:30;2.60;;;2.40;;
50012;SDS011;35901;48.694;9.476;2023-04-22T09:10:56;2.37;;;2.20;;
50012;SDS011;35901;48.694;9.476;2023-04-22T09:13:24;2.40;;;2.30;;
50012;SDS011;35901;48.694;9.476;2023-04-22T09:15:50;2.23;;;2.10;;
50012;SDS011;35901;48.694;9.476;2023-04-22T09:18:16;2.77;;;2.53;;
50012;SDS011;35901;48.694;9.476;2023-04-22T09:20:48;3.03;;;2.70;;
50012;SDS011;35901;48.694;9.476;2023-04-22T09:23:20;2.40;;;2.20;;
50012;SDS011;35901;48.694;9.476;2023-04-22T09:25:46;2.50;;;2.30;;
50012;SDS011;35901;48.694;9.476;2023-04-22T09:28:15;2.40;;;2.20;;
50012;SDS011;35901;48.694;9.476;2023-04-22T09:30:43;3.50;;;2.27;;
50012;SDS011;35901;48.694;9.476;2023-04-22T09:33:10;2.50;;;2.30;;
50012;SDS011;35901;48.694;9.476;2023-04-22T09:35:42;2.20;;;2.10;;
50012;SDS011;35901;48.694;9.476;2023-04-22T09:38:09;2.10;;;1.90;;
50012;SDS011;35901;48.694;9.476;2023-04-22T09:40:36;2.10;;;2.00;;
50012;SDS011;35901;48.694;9.476;2023-04-22T09:43:05;2.53;;;1.93;;
50012;SDS011;35901;48.694;9.476;2023-04-22T09:48:11;1.97;;;1.87;;
50012;SDS011;35901;48.694;9.476;2023-04-22T09:50:42;2.03;;;1.93;;
50012;SDS011;35901;48.694;9.476;2023-04-22T09:53:10;2.17;;;1.97;;
50012;SDS011;35901;48.694;9.476;2023-04-22T09:55:39;2.20;;;2.07;;
50012;SDS011;35901;48.694;9.476;2023-04-22T09:58:08;2.57;;;2.10;;
50012;SDS011;35901;48.694;9.476;2023-04-22T10:00:38;3.70;;;2.13;;
50012;SDS011;35901;48.694;9.476;2023-04-22T10:03:33;1.97;;;1.80;;
50012;SDS011;35901;48.694;9.476;2023-04-22T10:05:59;2.07;;;1.97;;
50012;SDS011;35901;48.694;9.476;2023-04-22T10:08:25;2.13;;;1.93;;
50012;SDS011;35901;48.694;9.476;2023-04-22T10:10:51;1.80;;;1.70;;
50012;SDS011;35901;48.694;9.476;2023-04-22T10:13:17;1.70;;;1.60;;
50012;SDS011;35901;48.694;9.476;2023-04-22T10:15:46;2.17;;;1.90;;
50012;SDS011;35901;48.694;9.476;2023-04-22T10:18:23;2.20;;;1.80;;
50012;SDS011;35901;48.694;9.476;2023-04-22T10:20:51;2.23;;;2.03;;
50012;SDS011;35901;48.694;9.476;2023-04-22T10:23:19;2.00;;;1.83;;
50012;SDS011;35901;48.694;9.476;2023-04-22T10:25:46;1.80;;;1.70;;
50012;SDS011;35901;48.694;9.476;2023-04-22T10:28:14;2.03;;;1.83;;
50012;SDS011;35901;48.694;9.476;2023-04-22T10:30:41;1.80;;;1.70;;
50012;SDS011;35901;48.694;9.476;2023-04-22T10:38:36;1.77;;;1.67;;
50012;SDS011;35901;48.694;9.476;2023-04-22T10:41:02;1.93;;;1.77;;
50012;SDS011;35901;48.694;9.476;2023-04-22T10:46:25;1.73;;;1.63;;
50012;SDS011;35901;48.694;9.476;2023-04-22T10:49:14;2.20;;;1.90;;
50012;SDS011;35901;48.694;9.476;2023-04-22T10:51:50;1.90;;;1.80;;
50012;SDS011;35901;48.694;9.476;2023-04-22T10:59:30;1.70;;;1.60;;
50012;SDS011;35901;48.694;9.476;2023-04-22T11:02:00;3.10;;;1.70;;
50012;SDS011;35901;48.694;9.476;2023-04-22T11:04:36;2.30;;;1.70;;
50012;SDS011;35901;48.694;9.476;2023-04-22T11:15:16;2.20;;;1.97;;
50012;SDS011;35901;48.694;9.476;2023-04-22T11:17:44;2.10;;;1.90;;
50012;SDS011;35901;48.694;9.476;2023-04-22T11:20:12;1.90;;;1.63;;
50012;SDS011;35901;48.694;9.476;2023-04-22T11:22:43;2.50;;;1.80;;
50012;SDS011;35901;48.694;9.476;2023-04-22T11:25:18;1.80;;;1.70;;
50012;SDS011;35901;48.694;9.476;2023-04-22T11:27:44;2.53;;;1.60;;
50012;SDS011;35901;48.694;9.476;2023-04-22T11:32:40;1.60;;;1.50;;
50012;SDS011;35901;48.694;9.476;2023-04-22T11:35:14;2.20;;;1.80;;
50012;SDS011;35901;48.694;9.476;2023-04-22T11:38:02;1.90;;;1.80;;
50012;SDS011;35901;48.694;9.476;2023-04-22T11:40:36;1.80;;;1.70;;
50012;SDS011;35901;48.694;9.476;2023-04-22T11:43:05;1.63;;;1.53;;
50012;SDS011;35901;48.694;9.476;2023-04-22T11:45:33;2.03;;;1.70;;
50012;SDS011;35901;48.694;9.476;2023-04-22T11:48:00;3.00;;;1.80;;
50012;SDS011;35901;48.694;9.476;2023-04-22T11:50:28;2.10;;;1.90;;
50012;SDS011;35901;48.694;9.476;2023-04-22T11:53:00;1.90;;;1.80;;
50012;SDS011;35901;48.694;9.476;2023-04-22T11:55:31;3.53;;;1.60;;
50012;SDS011;35901;48.694;9.476;2023-04-22T11:58:07;1.60;;;1.50;;
50012;SDS011;35901;48.694;9.476;2023-04-22T12:00:37;1.80;;;1.70;;
50012;SDS011;35901;48.694;9.476;2023-04-22T12:03:21;1.50;;;1.40;;
50012;SDS011;35901;48.694;9.476;2023-04-22T12:05:50;1.70;;;1.50;;
50012;SDS011;35901;48.694;9.476;2023-04-22T12:08:21;2.83;;;1.70;;
50012;SDS011;35901;48.694;9.476;2023-04-22T12:10:55;3.30;;;1.70;;
50012;SDS011;35901;48.694;9.476;2023-04-22T12:13:26;2.93;;;1.60;;
50012;SDS011;35901;48.694;9.476;2023-04-22T12:16:01;1.90;;;1.70;;
50012;SDS011;35901;48.694;9.476;2023-04-22T12:18:32;1.60;;;1.50;;
50012;SDS011;35901;48.694;9.476;2023-04-22T12:21:13;1.87;;;1.73;;
50012;SDS011;35901;48.694;9.476;2023-04-22T12:26:07;2.03;;;1.80;;
50012;SDS011;35901;48.694;9.476;2023-04-22T12:28:33;2.13;;;1.70;;
50012;SDS011;35901;48.694;9.476;2023-04-22T12:30:59;3.00;;;1.80;;
50012;SDS011;35901;48.694;9.476;2023-04-22T12:33:24;2.17;;;1.80;;
50012;SDS011;35901;48.694;9.476;2023-04-22T12:35:50;2.13;;;1.70;;
50012;SDS011;35901;48.694;9.476;2023-04-22T12:38:17;1.97;;;1.87;;
50012;SDS011;35901;48.694;9.476;2023-04-22T12:40:43;1.60;;;1.50;;
50012;SDS011;35901;48.694;9.476;2023-04-22T12:43:08;1.83;;;1.70;;
50012;SDS011;35901;48.694;9.476;2023-04-22T12:45:34;1.97;;;1.80;;
50012;SDS011;35901;48.694;9.476;2023-04-22T12:48:00;2.30;;;1.80;;
50012;SDS011;35901;48.694;9.476;2023-04-22T12:50:26;1.80;;;1.70;;
50012;SDS011;35901;48.694;9.476;2023-04-22T12:52:51;2.27;;;1.80;;
50012;SDS011;35901;48.694;9.476;2023-04-22T12:55:17;2.10;;;1.70;;
50012;SDS011;35901;48.694;9.476;2023-04-22T12:57:46;1.80;;;1.70;;
50012;SDS011;35901;48.694;9.476;2023-04-22T13:00:12;2.43;;;1.60;;
50012;SDS011;35901;48.694;9.476;2023-04-22T13:02:45;2.63;;;1.80;;
50012;SDS011;35901;48.694;9.476;2023-04-22T13:05:12;2.23;;;1.90;;
50012;SDS011;35901;48.694;9.476;2023-04-22T13:07:39;2.43;;;1.60;;
50012;SDS011;35901;48.694;9.476;2023-04-22T13:10:11;3.40;;;1.67;;
50012;SDS011;35901;48.694;9.476;2023-04-22T13:12:38;2.47;;;1.67;;
50012;SDS011;35901;48.694;9.476;2023-04-22T13:15:05;3.53;;;2.23;;
50012;SDS011;35901;48.694;9.476;2023-04-22T13:17:32;2.67;;;1.80;;
50012;SDS011;35901;48.694;9.476;2023-04-22T13:19:58;2.70;;;1.70;;
50012;SDS011;35901;48.694;9.476;2023-04-22T13:22:24;2.43;;;1.80;;
50012;SDS011;35901;48.694;9.476;2023-04-22T13:24:49;5.57;;;2.03;;
50012;SDS011;35901;48.694;9.476;2023-04-22T13:27:15;2.57;;;1.90;;
50012;SDS011;35901;48.694;9.476;2023-04-22T13:29:41;4.20;;;2.00;;
50012;SDS011;35901;48.694;9.476;2023-04-22T13:32:07;3.57;;;1.97;;
50012;SDS011;35901;48.694;9.476;2023-04-22T13:34:32;3.17;;;1.93;;
50012;SDS011;35901;48.694;9.476;2023-04-22T13:36:58;2.53;;;1.70;;
50012;SDS011;35901;48.694;9.476;2023-04-22T13:39:24;2.13;;;1.80;;
50012;SDS011;35901;48.694;9.476;2023-04-22T13:41:50;1.50;;;1.40;;
50012;SDS011;35901;48.694;9.476;2023-04-22T13:44:17;3.63;;;1.80;;
50012;SDS011;35901;48.694;9.476;2023-04-22T13:46:43;2.17;;;1.80;;
50012;SDS011;35901;48.694;9.476;2023-04-22T13:49:08;2.10;;;1.83;;
50012;SDS011;35901;48.694;9.476;2023-04-22T13:51:34;1.97;;;1.80;;
50012;SDS011;35901;48.694;9.476;2023-04-22T13:54:02;1.60;;;1.50;;
50012;SDS011;35901;48.694;9.476;2023-04-22T13:56:29;3.33;;;1.63;;
50012;SDS011;35901;48.694;9.476;2023-04-22T13:58:55;5.53;;;2.00;;
50012;SDS011;35901;48.694;9.476;2023-04-22T14:01:20;2.27;;;1.90;;
50012;SDS011;35901;48.694;9.476;2023-04-22T14:03:46;2.40;;;1.90;;
50012;SDS011;35901;48.694;9.476;2023-04-22T14:06:13;1.90;;;1.80;;
50012;SDS011;35901;48.694;9.476;2023-04-22T14:08:39;2.10;;;1.50;;
50012;SDS011;35901;48.694;9.476;2023-04-22T14:11:06;1.80;;;1.70;;
50012;SDS011;35901;48.694;9.476;2023-04-22T14:13:32;1.90;;;1.80;;
50012;SDS011;35901;48.694;9.476;2023-04-22T14:15:58;2.10;;;1.77;;
50012;SDS011;35901;48.694;9.476;2023-04-22T14:18:24;2.50;;;1.97;;
50012;SDS011;35901;48.694;9.476;2023-04-22T14:20:50;4.03;;;1.80;;
50012;SDS011;35901;48.694;9.476;2023-04-22T14:23:17;1.70;;;1.60;;
50012;SDS011;35901;48.694;9.476;2023-04-22T14:25:43;2.63;;;1.93;;
50012;SDS011;35901;48.694;9.476;2023-04-22T14:28:10;2.20;;;1.90;;
50012;SDS011;35901;48.694;9.476;2023-04-22T14:30:36;2.73;;;2.00;;
50012;SDS011;35901;48.694;9.476;2023-04-22T14:33:03;2.67;;;2.10;;
50012;SDS011;35901;48.694;9.476;2023-04-22T14:35:34;2.93;;;1.90;;
50012;SDS011;35901;48.694;9.476;2023-04-22T14:38:02;1.80;;;1.70;;
50012;SDS011;35901;48.694;9.476;2023-04-22T14:40:29;2.70;;;1.80;;
50012;SDS011;35901;48.694;9.476;2023-04-22T14:42:56;1.70;;;1.60;;
50012;SDS011;35901;48.694;9.476;2023-04-22T14:45:23;3.53;;;2.10;;
50012;SDS011;35901;48.694;9.476;2023-04-22T14:47:49;3.57;;;2.23;;
50012;SDS011;35901;48.694;9.476;2023-04-22T14:50:15;2.53;;;2.10;;
50012;SDS011;35901;48.694;9.476;2023-04-22T14:52:41;2.70;;;1.90;;
50012;SDS011;35901;48.694;9.476;2023-04-22T14:55:07;3.73;;;2.10;;
50012;SDS011;35901;48.694;9.476;2023-04-22T14:57:33;2.63;;;1.90;;
50012;SDS011;35901;48.694;9.476;2023-04-22T14:59:59;2.67;;;1.90;;
50012;SDS011;35901;48.694;9.476;2023-04-22T15:02:24;2.40;;;2.20;;
50012;SDS011;35901;48.694;9.476;2023-04-22T15:04:50;2.87;;;2.20;;
50012;SDS011;35901;48.694;9.476;2023-04-22T15:07:16;2.60;;;2.40;;
50012;SDS011;35901;48.694;9.476;2023-04-22T15:09:42;2.63;;;2.40;;